createdAt,value
2023-10-06T00:02:56.668Z,5.22
2023-10-06T00:06:00.605Z,7.30
2023-10-06T00:09:08.102Z,20.75
2023-10-06T00:12:14.662Z,10.60
2023-10-06T00:15:25.194Z,15.20
2023-10-06T00:18:29.381Z,5.40
2023-10-06T00:21:33.778Z,5.88
2023-10-06T00:24:39.274Z,10.60
2023-10-06T00:27:43.268Z,5.65
2023-10-06T00:30:49.468Z,7.47
2023-10-06T00:33:53.978Z,11.25
2023-10-06T00:36:57.794Z,6.63
2023-10-06T00:40:11.374Z,7.78
2023-10-06T00:43:18.094Z,5.80
2023-10-06T00:46:21.977Z,4.30
2023-10-06T00:49:26.078Z,11.02
2023-10-06T00:52:34.264Z,11.43
2023-10-06T00:55:40.703Z,23.33
2023-10-06T00:58:45.223Z,6.40
2023-10-06T01:01:51.214Z,17.23
2023-10-06T01:04:55.134Z,12.77
2023-10-06T01:07:59.787Z,9.82
2023-10-06T01:11:12.893Z,4.45
2023-10-06T01:14:23.035Z,11.45
2023-10-06T01:17:27.211Z,10.32
2023-10-06T01:20:37.288Z,8.85
2023-10-06T01:23:42.501Z,7.75
2023-10-06T01:26:50.374Z,4.07
2023-10-06T01:30:15.281Z,4.88
2023-10-06T01:33:19.181Z,6.40
2023-10-06T01:36:24.347Z,8.52
2023-10-06T01:39:32.930Z,8.75
2023-10-06T01:42:37.267Z,13.35
2023-10-06T01:45:45.382Z,6.78
2023-10-06T01:48:49.322Z,2.35
2023-10-06T01:55:04.768Z,4.57
2023-10-06T01:58:12.625Z,1.83
2023-10-06T02:01:19.995Z,6.28
2023-10-06T02:04:26.679Z,1.70
2023-10-06T02:07:34.795Z,14.80
2023-10-06T02:10:43.908Z,5.82
2023-10-06T02:13:48.404Z,6.05
2023-10-06T02:16:56.640Z,8.60
2023-10-06T02:20:00.637Z,5.68
2023-10-06T02:23:05.308Z,9.23
2023-10-06T02:26:13.620Z,3.95
2023-10-06T02:29:23.904Z,2.28
2023-10-06T02:32:28.021Z,1.48
2023-10-06T02:35:31.915Z,3.60
2023-10-06T02:38:42.770Z,2.47
2023-10-06T02:41:48.924Z,1.55
2023-10-06T02:44:54.737Z,4.88
2023-10-06T02:48:00.445Z,1.77
2023-10-06T02:51:05.337Z,1.52
2023-10-06T02:54:21.916Z,3.65
2023-10-06T02:57:28.107Z,1.60
2023-10-06T03:00:32.237Z,4.15
2023-10-06T03:03:36.072Z,1.30
2023-10-06T03:06:39.885Z,2.95
2023-10-06T03:09:46.506Z,1.60
2023-10-06T03:12:52.179Z,2.88
2023-10-06T03:15:55.999Z,6.55
2023-10-06T03:19:01.241Z,3.22
2023-10-06T03:22:07.112Z,1.98
2023-10-06T03:25:18.044Z,2.75
2023-10-06T03:28:32.601Z,2.92
2023-10-06T03:31:46.048Z,1.67
2023-10-06T03:34:54.152Z,1.50
2023-10-06T03:38:09.790Z,1.63
2023-10-06T03:41:25.869Z,1.45
2023-10-06T03:44:32.190Z,1.67
2023-10-06T03:47:37.762Z,2.22
2023-10-06T03:50:44.476Z,2.55
2023-10-06T03:53:50.126Z,2.97
2023-10-06T03:56:55.142Z,2.33
2023-10-06T04:00:00.463Z,6.80
2023-10-06T04:03:05.095Z,4.32
2023-10-06T04:06:14.081Z,2.17
2023-10-06T04:09:28.255Z,4.32
2023-10-06T04:12:32.320Z,7.60
2023-10-06T04:15:39.360Z,13.60
2023-10-06T04:18:48.957Z,8.23
2023-10-06T04:21:53.351Z,6.47
2023-10-06T04:24:57.127Z,3.65
2023-10-06T04:28:00.970Z,5.25
2023-10-06T04:31:06.875Z,3.55
2023-10-06T04:34:11.768Z,5.85
2023-10-06T04:37:15.606Z,1.13
2023-10-06T04:40:21.281Z,5.57
2023-10-06T04:43:25.069Z,2.45
2023-10-06T04:46:30.337Z,2.45
2023-10-06T04:49:35.280Z,2.28
2023-10-06T04:52:39.070Z,6.85
2023-10-06T04:55:42.981Z,1.10
2023-10-06T04:58:46.813Z,1.60
2023-10-06T05:01:52.071Z,2.42
2023-10-06T05:04:55.907Z,3.38
2023-10-06T05:07:59.743Z,2.20
2023-10-06T05:11:04.042Z,3.20
2023-10-06T05:14:10.415Z,5.28
2023-10-06T05:17:17.662Z,9.48
2023-10-06T05:20:21.731Z,2.10
2023-10-06T05:23:25.538Z,5.68
2023-10-06T05:26:29.886Z,6.18
2023-10-06T05:29:37.150Z,6.68
2023-10-06T05:32:44.080Z,14.00
2023-10-06T05:35:47.995Z,11.85
2023-10-06T05:38:51.996Z,12.35
2023-10-06T05:41:55.751Z,21.75
2023-10-06T05:45:00.388Z,27.33
2023-10-06T05:48:08.446Z,36.72
2023-10-06T05:51:16.262Z,22.30
2023-10-06T05:54:23.163Z,12.80
2023-10-06T05:57:27.957Z,12.85
2023-10-06T06:00:32.317Z,10.60
2023-10-06T06:03:40.206Z,11.18
2023-10-06T06:06:48.037Z,6.50
2023-10-06T06:09:51.837Z,8.95
2023-10-06T06:12:55.926Z,4.00
2023-10-06T06:16:01.042Z,3.40
2023-10-06T06:19:07.169Z,5.50
2023-10-06T06:22:11.497Z,4.40
2023-10-06T06:25:15.377Z,2.95
2023-10-06T06:28:19.258Z,4.10
2023-10-06T06:31:23.544Z,3.53
2023-10-06T06:34:29.140Z,3.22
2023-10-06T06:37:33.160Z,2.58
2023-10-06T06:40:39.287Z,3.67
2023-10-06T06:43:47.079Z,1.67
2023-10-06T06:46:51.101Z,5.93
2023-10-06T06:49:56.395Z,1.60
2023-10-06T06:53:00.216Z,1.92
2023-10-06T06:56:07.023Z,2.45
2023-10-06T06:59:11.056Z,5.72
2023-10-06T07:02:15.803Z,3.95
2023-10-06T07:05:23.353Z,4.03
2023-10-06T07:08:28.760Z,1.75
2023-10-06T07:11:32.639Z,2.78
2023-10-06T07:14:36.612Z,1.40
2023-10-06T07:17:40.803Z,1.58
2023-10-06T07:20:46.527Z,3.50
2023-10-06T07:23:53.256Z,1.50
2023-10-06T07:26:57.626Z,3.28
2023-10-06T07:30:04.811Z,6.65
2023-10-06T07:33:11.604Z,1.45
2023-10-06T07:36:19.354Z,5.15
2023-10-06T07:39:23.514Z,2.22
2023-10-06T07:42:27.359Z,3.05
2023-10-06T07:45:33.100Z,1.80
2023-10-06T07:48:38.759Z,2.60
2023-10-06T07:51:46.465Z,1.48
2023-10-06T07:54:50.576Z,1.50
2023-10-06T07:57:54.593Z,1.63
2023-10-06T08:00:58.332Z,1.38
2023-10-06T08:04:02.091Z,3.03
2023-10-06T08:07:07.420Z,1.70
2023-10-06T08:10:15.060Z,1.58
2023-10-06T08:13:19.338Z,1.63
2023-10-06T08:16:23.135Z,2.95
2023-10-06T08:19:27.340Z,1.40
2023-10-06T08:22:35.200Z,1.35
2023-10-06T08:25:56.826Z,3.25
2023-10-06T08:29:02.859Z,3.47
2023-10-06T08:32:07.789Z,3.10
2023-10-06T08:35:14.456Z,2.38
2023-10-06T08:38:19.768Z,2.05
2023-10-06T08:41:27.741Z,1.60
2023-10-06T08:44:32.917Z,1.35
2023-10-06T08:47:49.272Z,1.25
2023-10-06T08:51:04.680Z,6.55
2023-10-06T08:54:14.964Z,4.07
2023-10-06T08:57:18.943Z,1.95
2023-10-06T09:00:25.274Z,1.27
2023-10-06T09:03:30.669Z,2.40
2023-10-06T09:06:34.505Z,2.15
2023-10-06T09:09:39.850Z,3.70
2023-10-06T09:12:44.346Z,1.20
2023-10-06T09:15:58.575Z,1.23
2023-10-06T09:19:02.892Z,1.42
2023-10-06T09:22:08.277Z,1.73
2023-10-06T09:25:13.962Z,3.25
2023-10-06T09:28:18.681Z,3.03
2023-10-06T09:31:37.363Z,1.75
2023-10-06T09:34:41.325Z,1.38
2023-10-06T09:37:45.647Z,1.20
2023-10-06T09:40:50.783Z,1.30
2023-10-06T09:43:55.433Z,1.00
2023-10-06T09:47:02.233Z,1.38
2023-10-06T09:50:07.964Z,1.10
2023-10-06T09:53:13.515Z,4.90
2023-10-06T09:56:20.081Z,3.53
2023-10-06T09:59:25.197Z,1.15
2023-10-06T10:02:29.761Z,1.20
2023-10-06T10:05:34.207Z,1.27
2023-10-06T10:08:42.269Z,4.28
2023-10-06T10:11:53.284Z,1.55
2023-10-06T10:15:13.249Z,5.53
2023-10-06T10:18:26.019Z,1.52
2023-10-06T10:21:29.855Z,2.63
2023-10-06T10:27:45.713Z,2.15
2023-10-06T10:30:51.853Z,2.67
2023-10-06T10:33:58.125Z,1.40
2023-10-06T10:37:17.752Z,1.20
2023-10-06T10:40:23.283Z,1.33
2023-10-06T10:43:28.690Z,1.85
2023-10-06T10:46:32.924Z,2.63
2023-10-06T10:49:37.397Z,1.30
2023-10-06T10:52:41.283Z,1.25
2023-10-06T10:55:45.669Z,1.85
2023-10-06T10:58:58.253Z,1.65
2023-10-06T11:02:09.382Z,2.72
2023-10-06T11:05:13.628Z,1.25
2023-10-06T11:08:17.642Z,2.58
2023-10-06T11:11:21.905Z,2.00
2023-10-06T11:14:28.342Z,2.65
2023-10-06T11:17:33.742Z,1.50
2023-10-06T11:20:39.774Z,1.50
2023-10-06T11:23:45.100Z,2.53
2023-10-06T11:26:49.405Z,1.48
2023-10-06T11:29:58.499Z,1.45
2023-10-06T11:33:03.670Z,1.60
2023-10-06T11:36:08.263Z,1.92
2023-10-06T11:39:12.401Z,2.22
2023-10-06T11:42:31.128Z,1.83
2023-10-06T11:45:38.137Z,1.95
2023-10-06T11:48:42.035Z,2.03
2023-10-06T11:51:46.192Z,3.28
2023-10-06T11:54:50.808Z,3.67
2023-10-06T11:57:55.417Z,1.95
2023-10-06T12:01:00.748Z,2.45
2023-10-06T12:04:07.483Z,4.10
2023-10-06T12:07:22.703Z,1.95
2023-10-06T12:10:26.617Z,2.35
2023-10-06T12:13:30.402Z,1.98
2023-10-06T12:16:37.604Z,3.38
2023-10-06T12:19:43.332Z,4.00
2023-10-06T12:22:48.354Z,3.30
2023-10-06T12:25:52.224Z,1.45
2023-10-06T12:28:56.212Z,1.35
2023-10-06T12:32:04.564Z,2.97
2023-10-06T12:35:09.932Z,2.17
2023-10-06T12:38:15.924Z,2.80
2023-10-06T12:41:20.634Z,2.92
2023-10-06T12:44:28.496Z,2.25
2023-10-06T12:47:33.829Z,1.55
2023-10-06T12:50:42.391Z,1.25
2023-10-06T12:53:46.702Z,1.38
2023-10-06T12:56:50.556Z,1.30
2023-10-06T12:59:54.284Z,1.27
2023-10-06T13:02:59.661Z,1.95
2023-10-06T13:06:04.819Z,0.90
2023-10-06T13:09:10.210Z,0.98
2023-10-06T13:12:13.942Z,1.73
2023-10-06T13:15:19.973Z,1.23
2023-10-06T13:18:25.320Z,1.05
2023-10-06T13:21:29.542Z,0.80
2023-10-06T13:24:35.375Z,1.17
2023-10-06T13:27:40.725Z,0.80
2023-10-06T13:30:45.523Z,1.42
2023-10-06T13:33:52.947Z,1.65
2023-10-06T13:36:56.863Z,0.88
2023-10-06T13:40:01.092Z,1.88
2023-10-06T13:43:08.178Z,0.95
2023-10-06T13:46:13.482Z,1.63
2023-10-06T13:49:20.104Z,1.05
2023-10-06T13:52:23.876Z,0.90
2023-10-06T13:55:27.684Z,0.77
2023-10-06T13:58:31.561Z,0.90
2023-10-06T14:01:35.696Z,0.70
2023-10-06T14:04:41.825Z,5.47
2023-10-06T14:07:46.475Z,1.00
2023-10-06T14:10:50.963Z,2.03
2023-10-06T14:13:58.220Z,0.95
2023-10-06T14:17:03.555Z,1.00
2023-10-06T14:20:24.822Z,1.50
2023-10-06T14:23:32.186Z,1.02
2023-10-06T14:26:36.739Z,1.25
2023-10-06T14:29:40.541Z,2.08
2023-10-06T14:32:56.436Z,2.17
2023-10-06T14:36:25.892Z,4.20
2023-10-06T14:39:47.330Z,1.33
2023-10-06T14:43:08.307Z,1.17
2023-10-06T14:46:12.144Z,2.75
2023-10-06T14:49:16.025Z,1.20
2023-10-06T14:52:21.164Z,1.45
2023-10-06T14:55:24.995Z,4.88
2023-10-06T14:58:28.809Z,1.75
2023-10-06T15:01:32.711Z,2.17
2023-10-06T15:04:36.927Z,2.60
2023-10-06T15:07:42.634Z,1.60
2023-10-06T15:10:48.539Z,3.47
2023-10-06T15:13:55.362Z,1.45
2023-10-06T15:17:01.106Z,3.03
2023-10-06T15:20:05.940Z,1.30
2023-10-06T15:23:14.121Z,1.67
2023-10-06T15:26:17.982Z,2.90
2023-10-06T15:29:22.411Z,2.75
2023-10-06T15:32:27.855Z,2.05
2023-10-06T15:35:37.305Z,2.45
2023-10-06T15:38:43.686Z,1.27
2023-10-06T15:41:47.921Z,1.33
2023-10-06T15:44:52.375Z,2.00
2023-10-06T15:47:56.875Z,2.42
2023-10-06T15:51:01.158Z,1.83
2023-10-06T15:54:07.159Z,1.20
2023-10-06T15:57:10.959Z,3.08
2023-10-06T16:00:15.368Z,1.20
2023-10-06T16:03:21.369Z,1.20
2023-10-06T16:06:27.250Z,1.92
2023-10-06T16:09:32.418Z,1.40
2023-10-06T16:12:36.213Z,1.42
2023-10-06T16:15:54.731Z,2.47
2023-10-06T16:19:07.432Z,1.50
2023-10-06T16:22:11.287Z,2.38
2023-10-06T16:25:16.670Z,2.60
2023-10-06T16:28:20.459Z,3.55
2023-10-06T16:31:24.348Z,3.08
2023-10-06T16:34:28.184Z,2.13
2023-10-06T16:37:32.653Z,1.80
2023-10-06T16:40:38.095Z,1.48
2023-10-06T16:43:42.101Z,1.27
2023-10-06T16:46:46.189Z,1.55
2023-10-06T16:49:50.727Z,1.80
2023-10-06T16:52:54.800Z,1.65
2023-10-06T16:56:00.781Z,3.13
2023-10-06T16:59:04.684Z,1.42
2023-10-06T17:02:08.904Z,2.67
2023-10-06T17:05:14.563Z,1.65
2023-10-06T17:08:18.748Z,3.08
2023-10-06T17:11:25.226Z,1.50
2023-10-06T17:14:29.124Z,3.42
2023-10-06T17:17:33.643Z,2.25
2023-10-06T17:20:38.709Z,2.53
2023-10-06T17:23:43.805Z,1.95
2023-10-06T17:26:49.352Z,2.70
2023-10-06T17:29:56.757Z,2.05
2023-10-06T17:33:00.623Z,2.00
2023-10-06T17:36:04.861Z,2.72
2023-10-06T17:39:09.015Z,1.40
2023-10-06T17:42:14.541Z,2.10
2023-10-06T17:45:18.778Z,4.32
2023-10-06T17:48:22.749Z,2.08
2023-10-06T17:51:26.936Z,2.88
2023-10-06T17:54:30.885Z,1.52
2023-10-06T17:57:36.386Z,1.70
2023-10-06T18:00:41.552Z,1.80
2023-10-06T18:03:48.462Z,1.90
2023-10-06T18:06:52.702Z,1.52
2023-10-06T18:09:56.443Z,1.50
2023-10-06T18:13:01.575Z,1.40
2023-10-06T18:16:06.850Z,1.30
2023-10-06T18:19:11.912Z,1.40
2023-10-06T18:22:15.699Z,1.52
2023-10-06T18:25:19.702Z,2.15
2023-10-06T18:28:25.122Z,1.50
2023-10-06T18:31:29.375Z,2.15
2023-10-06T18:34:33.526Z,1.60
2023-10-06T18:37:38.430Z,1.27
2023-10-06T18:40:52.022Z,1.23
2023-10-06T18:43:57.437Z,1.42
2023-10-06T18:47:01.452Z,1.83
2023-10-06T18:50:06.962Z,1.40
2023-10-06T18:53:10.753Z,2.40
2023-10-06T18:56:14.832Z,2.95
2023-10-06T18:59:20.333Z,2.08
2023-10-06T19:02:24.768Z,3.15
2023-10-06T19:05:28.673Z,1.70
2023-10-06T19:08:34.851Z,1.75
2023-10-06T19:11:38.958Z,2.17
2023-10-06T19:14:44.295Z,4.43
2023-10-06T19:17:48.258Z,4.13
2023-10-06T19:21:01.313Z,4.13
2023-10-06T19:24:06.443Z,4.30
2023-10-06T19:27:12.384Z,6.15
2023-10-06T19:30:17.702Z,2.80
2023-10-06T19:33:21.666Z,3.08
2023-10-06T19:36:25.477Z,3.53
2023-10-06T19:39:29.551Z,5.50
2023-10-06T19:42:33.545Z,2.53
2023-10-06T19:45:41.820Z,6.93
2023-10-06T19:48:47.399Z,7.82
2023-10-06T19:51:53.335Z,9.02
2023-10-06T19:54:57.067Z,5.50
2023-10-06T19:58:00.936Z,5.93
2023-10-06T20:01:08.611Z,4.35
2023-10-06T20:04:12.496Z,15.23
2023-10-06T20:07:16.251Z,10.43
2023-10-06T20:10:22.817Z,7.28
2023-10-06T20:13:28.018Z,6.43
2023-10-06T20:16:34.753Z,10.43
2023-10-06T20:19:39.783Z,9.50
2023-10-06T20:22:43.607Z,12.13
2023-10-06T20:25:47.464Z,7.10
2023-10-06T20:28:51.578Z,4.88
2023-10-06T20:31:56.724Z,14.20
2023-10-06T20:35:00.731Z,8.38
2023-10-06T20:38:04.779Z,7.55
2023-10-06T20:41:08.566Z,9.63
2023-10-06T20:44:13.336Z,7.72
2023-10-06T20:47:18.914Z,12.77
2023-10-06T20:50:22.789Z,11.25
2023-10-06T20:53:29.471Z,7.95
2023-10-06T20:56:33.309Z,10.80
2023-10-06T20:59:37.718Z,9.10
2023-10-06T21:02:43.476Z,10.05
2023-10-06T21:05:47.629Z,9.63
2023-10-06T21:08:53.563Z,9.57
2023-10-06T21:11:57.304Z,10.68
2023-10-06T21:15:01.156Z,8.05
2023-10-06T21:18:08.311Z,16.20
2023-10-06T21:21:12.057Z,11.73
2023-10-06T21:24:15.829Z,8.73
2023-10-06T21:27:19.674Z,14.63
2023-10-06T21:30:23.989Z,12.02
2023-10-06T21:33:29.140Z,6.50
2023-10-06T21:36:33.128Z,14.15
2023-10-06T21:39:36.988Z,10.70
2023-10-06T21:42:41.281Z,7.80
2023-10-06T21:45:45.059Z,11.88
2023-10-06T21:48:50.739Z,6.60
2023-10-06T21:51:54.612Z,11.05
2023-10-06T21:54:58.432Z,12.15
2023-10-06T21:58:02.176Z,9.45
2023-10-06T22:01:06.174Z,14.43
2023-10-06T22:04:14.607Z,8.43
2023-10-06T22:07:18.900Z,9.80
2023-10-06T22:10:25.696Z,13.48
2023-10-06T22:13:32.943Z,10.07
2023-10-06T22:16:37.069Z,10.65
2023-10-06T22:19:43.058Z,6.50
2023-10-06T22:22:49.966Z,12.45
2023-10-06T22:25:53.755Z,9.93
2023-10-06T22:28:57.598Z,7.80
2023-10-06T22:32:01.714Z,13.93
2023-10-06T22:35:07.350Z,11.27
2023-10-06T22:38:11.785Z,14.88
2023-10-06T22:41:18.715Z,7.07
2023-10-06T22:44:22.918Z,14.82
2023-10-06T22:47:26.866Z,9.10
2023-10-06T22:50:32.264Z,13.77
2023-10-06T22:53:39.597Z,8.57
2023-10-06T22:56:43.452Z,7.32
2023-10-06T22:59:49.176Z,12.07
2023-10-06T23:02:54.748Z,7.85
2023-10-06T23:06:02.940Z,9.57
2023-10-06T23:09:07.425Z,8.18
2023-10-06T23:12:11.244Z,11.35
2023-10-06T23:15:16.226Z,6.03
2023-10-06T23:18:23.691Z,5.07
2023-10-06T23:21:29.086Z,2.00
2023-10-06T23:24:49.150Z,1.08
2023-10-06T23:27:53.911Z,0.75
2023-10-06T23:30:59.473Z,1.00
2023-10-06T23:34:03.436Z,0.43
2023-10-06T23:37:09.598Z,0.70
2023-10-06T23:40:21.982Z,0.70
2023-10-06T23:43:30.887Z,3.25
2023-10-06T23:46:35.210Z,1.13
2023-10-06T23:49:41.461Z,3.40
2023-10-06T23:52:47.483Z,0.77
2023-10-06T23:55:51.914Z,0.47
2023-10-06T23:58:56.786Z,0.57
